Informational Postings
Notices
Non-Critical
TSP NameTSP DUNSPost DatePost Time
KERN RIVER GAS TRANSMISSION COMPANY 621617372 05/26/2020 02:49:36

Notice TypePosted
Date/Time
Notice Effective
Date/Time
Notice End
Date/Time
Notice
Identifier
SubjectResponse
Date/Time
Notice
Status
Prior
Notice
Identifier
 Other05/25/2020 08:5705/25/2020 08:5705/26/2020 08:5720200272 PG&E Posts Notice  N/A 1 
 Other05/24/2020 21:1905/24/2020 21:1905/25/2020 21:1920200271 SoCalGas Posts Notice  N/A 1 
 Other05/24/2020 17:5505/24/2020 17:5505/25/2020 17:5520200270 SoCalGas Posts Notice  N/A 1 
 Other05/23/2020 21:4405/23/2020 21:4405/24/2020 21:4420200269 SoCalGasPosts Notice  N/A 1 
 Other05/23/2020 17:0905/23/2020 17:0905/24/2020 17:0920200268 SoCalGas Posts Notice  N/A 1 
 Other05/22/2020 17:2405/22/2020 17:2405/23/2020 17:2420200267 SoCal Gas Posts Notice  N/A 1 
 Other05/22/2020 08:2905/22/2020 08:2905/23/2020 08:2920200266 PG&E Posts Notice  N/A 1 
 Rates - Chgs05/20/2020 14:2005/20/2020 14:2006/01/2020 09:0020200265 Kern River - June 2020 Compressor Fuel and L&U  N/A 1 
 Weather05/20/2020 11:3705/20/2020 11:3705/21/2020 11:3720200264 Kern River - Hot Weather Forecasted  N/A 2 20200262
 Maint05/20/2020 11:2805/20/2020 11:2806/19/2020 11:2820200263 Kern River - Update to Maintenance Schedule  N/A 2 20200236
 Weather05/20/2020 11:2305/20/2020 11:2305/31/2020 11:2320200262 Kern Rivr - Hot Weather Forecasted  N/A 3 
 Other05/19/2020 17:2505/19/2020 17:2505/20/2020 17:2520200261 SoCal Gas Posts Notice  N/A 1 
 Other05/18/2020 17:4205/18/2020 17:4205/19/2020 17:4220200260 SoCal Gas Posts Notice  N/A 1 
 Other05/16/2020 10:2105/16/2020 10:2105/17/2020 10:2120200259 SoCal Gas Posts Notice  N/A 1 
 Other05/15/2020 09:3505/15/2020 09:3505/16/2020 09:3520200257 PG&E Posts Notice  N/A 1 
 Other05/15/2020 07:2005/15/2020 07:2005/16/2020 07:2020200256 SoCal Gas Posts Notice  N/A 1 
 Maint05/14/2020 13:1305/14/2020 13:1305/17/2020 09:0020200255 Kern River - Salt Lake Compressor Station Maintenance Completed Early  N/A 1 
 Other05/14/2020 12:0505/14/2020 12:0505/15/2020 12:0520200254 SoCal Gas Posts Notice  N/A 1 
 Other05/12/2020 17:5205/12/2020 17:5205/13/2020 17:5220200251 SoCalGas Posts Notice  N/A 1 
 Other05/11/2020 17:1905/11/2020 17:1905/12/2020 17:1920200250 SoCalGas Posts Notice  N/A 1 
 Other05/09/2020 21:2505/09/2020 21:2505/10/2020 21:2520200249 SoCal Gas Posts Notice  N/A 1 
 Cust Srvc05/07/2020 12:5105/07/2020 12:5105/14/2020 09:0020200247 Kern River - April 2020 Final Allocation Reports  N/A 1 
 Other05/07/2020 08:1905/07/2020 08:1905/08/2020 08:1920200246 PG&E Posts Notice  N/A 1 
 Other05/05/2020 17:3505/05/2020 17:3505/06/2020 17:3520200244 Dominion Energy Questar Pipeline, LLC Posts Notice  N/A 1 
 Other05/02/2020 17:5205/02/2020 17:5205/03/2020 17:5220200242 Southwest Gas Posts Notice  N/A 1 
 Other05/01/2020 09:0505/01/2020 09:0505/02/2020 09:0520200240 PG&E Posts Notice  N/A 1 
 Cust Srvc05/01/2020 07:4405/01/2020 07:4405/07/2020 09:0020200239 Kern River - April 2020 Preliminary Allocation Reports  N/A 1 
 Other04/30/2020 17:1504/30/2020 17:1505/01/2020 17:1520200237 SoCalGas Posts Notice  N/A 1 
 Maint04/29/2020 16:5604/29/2020 16:5605/29/2020 16:5620200236 Kern River - Update to Maintenance Schedule  N/A 3 20200231
 Loc Chg04/29/2020 08:4204/29/2020 08:4206/01/2020 09:0020200235 Kern River - New Salt Cove Receipt and Delivery Meter Stations (Update)  N/A 2 20200170
 Other04/27/2020 21:3104/27/2020 21:3104/28/2020 21:3120200234 SoCal Gas Posts Notice  N/A 1 
 Other04/27/2020 17:3604/27/2020 17:3604/28/2020 17:3620200233 SoCal Gas Posts Notice  N/A 1 
 Maint04/24/2020 17:3704/24/2020 17:3705/24/2020 17:3720200231 Kern River - Update to Maintenance Schedule  N/A 3 20200220
 Weather04/23/2020 10:4504/23/2020 10:4505/07/2020 10:4520200229 Kern River - Forecast Calling for Warmer-Than-Normal Temperatures  N/A 1 
 Other04/23/2020 08:2204/23/2020 08:2204/24/2020 08:2220200228 PG&E Posts Notice  N/A 1 
 Other04/22/2020 10:1604/22/2020 10:1604/23/2020 10:1620200227 PG&E Posts Notice  N/A 1 
 Rates - Chgs04/20/2020 11:2304/20/2020 11:2305/01/2020 09:0020200225 Kern River - May 2020 Compressor Fuel and L&U  N/A 1 
 Other04/19/2020 16:4204/19/2020 16:4204/20/2020 16:4220200224 Southwest Gas Posts Notice  N/A 2 20200223
 Other04/19/2020 16:3504/19/2020 16:3504/20/2020 16:3520200223 Southwest Gas Posts Notice  N/A 3 
 Maint04/17/2020 15:3904/17/2020 15:3904/18/2020 15:3920200220 Kern River - Update to Maintenance Schedule  N/A 3 20200185
 Other04/17/2020 12:2504/17/2020 12:2504/18/2020 12:2520200219 SoCalGas Posts Notice  N/A 1 
 Other04/16/2020 21:3104/16/2020 21:3104/17/2020 21:3120200218 SoCal Gas Post Notice  N/A 1 
 Other04/16/2020 18:1704/16/2020 18:1704/17/2020 18:1720200217 SoCal Gas Posts Notice  N/A 1 
 Other04/16/2020 11:5904/16/2020 11:5904/26/2020 11:5920200216 PG&E Posts Maintenance  N/A 1 
 Other04/15/2020 19:1604/15/2020 19:1604/16/2020 19:1620200215 PG&E Posts Notice  N/A 1 
 News04/15/2020 10:2704/15/2020 10:2704/22/2020 10:2720200214 Kern River Filing, Docket No. RP20-785  N/A 1 
 Other04/14/2020 12:5704/14/2020 12:5704/15/2020 12:5720200211 Dominion Energy Questar Pipeline Posts Notice  N/A 1 
 Other04/14/2020 09:5604/14/2020 09:5604/15/2020 09:5620200210 Southwest Gas Posts Notice  N/A 1 
 Other04/13/2020 21:4004/13/2020 21:4004/14/2020 21:4020200207 SoCal Gas Posts Notice  N/A 1 
 Other04/13/2020 15:5904/13/2020 15:5904/14/2020 15:5920200206 Northwest Pipeline Posts Notice  N/A 1 
 Other04/13/2020 13:0204/13/2020 13:0204/14/2020 13:0220200205 Southwest Gas Posts Notice  N/A 1 
 Other04/12/2020 17:1904/12/2020 17:1904/13/2020 17:1920200204 SoCalGas Posts Notice  N/A 1 
 Other04/10/2020 17:1504/10/2020 17:1504/11/2020 17:1520200202 SoCal Posts Notice  N/A 1 
 Other04/09/2020 18:1504/09/2020 18:1504/10/2020 18:1520200201 SoCal Gas Posts Notice  N/A 1 
 Cust Srvc04/09/2020 10:0604/09/2020 10:0604/16/2020 10:0620200200 Kern River - Rapids System Enhancement to Nomination Window  N/A 1 
 Other04/08/2020 10:2404/08/2020 10:2404/09/2020 10:2420200197 PG&E Posts Notice  N/A 1 
 Cust Srvc04/07/2020 17:0804/07/2020 17:0804/14/2020 09:0020200195 Kern River - March 2020 Final Allocation Reports  N/A 1 
 Other04/06/2020 17:1704/06/2020 17:1704/07/2020 17:1720200193 SoCalGas Posts Notice  N/A 1 
 Other04/06/2020 10:4804/06/2020 10:4804/07/2020 10:4820200192 PG&E Posts Notice  N/A 1 
 Other04/05/2020 19:2204/05/2020 19:2204/06/2020 19:2220200191 PG&E Posts Notice  N/A 1 
 Other04/05/2020 17:5304/05/2020 17:5304/06/2020 17:5320200190 SoCalGas Posts Notice  N/A 1 
 Other04/04/2020 21:2804/04/2020 21:2804/05/2020 21:2820200189 SoCal Gas Posts Notice  N/A 1 
 Other04/03/2020 17:1704/03/2020 17:1704/04/2020 17:1720200188 SoCal Gas Posts Notice  N/A 1 
 Maint04/03/2020 12:1104/03/2020 12:1104/04/2020 12:1120200185 Kern River - Update to Maintenance Schedule  N/A 3 20200180
 News04/03/2020 10:2104/03/2020 10:2104/10/2020 10:2120200184 Revisions to Pooling Provisions, Docket No. RP20-768  N/A 1 
 Other04/03/2020 08:2204/03/2020 08:2204/04/2020 08:2220200182 PG&E Posts Notice  N/A 1 
 Maint04/01/2020 17:0704/01/2020 17:0704/02/2020 17:0720200180 Kern River - Update to Maintenance Schedule  N/A 3 20200171
 Other04/01/2020 15:3004/01/2020 15:3004/02/2020 15:3020200179 Northwest Pipeline Posts Notice  N/A 1 
 Cust Srvc04/01/2020 10:4104/01/2020 10:4104/07/2020 09:0020200178 Kern River - March 2020 Preliminary Allocation Reports  N/A 1 
 Other03/30/2020 17:1503/30/2020 17:1503/31/2020 17:1520200176 SoCalGas Posts Notice  N/A 1 
 Other03/29/2020 18:0503/29/2020 18:0503/30/2020 18:0520200175 SoCal Gas Posts Notice  N/A 1 
 Other03/29/2020 09:3303/29/2020 09:3303/30/2020 09:3320200174 Southwest Gas Posts Notice  N/A 1 
 News03/27/2020 11:3403/27/2020 11:3404/03/2020 11:3420200172 Annual Gas Compressor Fuel Report, Docket No. RP20-691  N/A 1 
 Maint03/26/2020 18:0003/26/2020 18:0004/27/2020 18:0020200171 Kern River - Update to Maintenance Schedule  N/A 3 20200161
 Loc Chg03/26/2020 09:3603/26/2020 09:3605/01/2020 09:0020200170 Kern River - New Salt Cove Receipt and Delivery Meter Stations (Update)  N/A 3 20190707
 Other03/26/2020 08:3703/26/2020 08:3703/27/2020 08:3720200169 Northwest Pipeline Posts Notice  N/A 1 
 Other03/26/2020 08:2403/26/2020 08:2403/27/2020 08:2420200168 PG&E Posts Notice  N/A 1 
 Other03/25/2020 10:3803/25/2020 10:3803/26/2020 10:3820200167 PG&E Posts Notice  N/A 1 
 Other03/24/2020 16:5303/24/2020 16:5303/25/2020 16:5320200166 Southwest Gas Posts Notice  N/A 1 
 Other03/24/2020 15:5903/24/2020 15:5903/25/2020 15:5920200164 Southwest Gas Posts Notice  N/A 1 
 Maint03/23/2020 17:0803/23/2020 17:0803/24/2020 17:0820200162 Kern River - Elberta Compressor Station Maintenance Completed Early  N/A 1 
 Maint03/23/2020 15:1103/23/2020 15:1104/22/2020 15:1120200161 Kern River - Update to Maintenance Schedule  N/A 3 20200139
 Other03/23/2020 10:1903/23/2020 10:1903/24/2020 10:1920200157 PG&E Posts Notice  N/A 1 
 Other03/22/2020 17:1903/22/2020 17:1903/23/2020 17:1920200156 SoCal Gas Posts Notice  N/A 1 
 Other03/21/2020 09:5503/21/2020 09:5503/22/2020 09:5520200155 PG&E Posts Notice  N/A 1 
 News03/20/2020 17:2003/20/2020 17:2003/27/2020 17:2020200153 Revised Daggett Surcharges Effective April 1, 2020  N/A 1 
 Other03/20/2020 15:3203/20/2020 15:3203/21/2020 15:3220200152 PG&E Posts Notice  N/A 1 
 Other03/19/2020 21:3203/19/2020 21:3203/20/2020 21:3220200151 SoCal Gas Posts Notice  N/A 1 
 Other03/19/2020 19:2203/19/2020 19:2203/20/2020 19:2220200150 Dominion Energy Posts Notice  N/A 1 
 Other03/19/2020 18:2503/19/2020 18:2503/20/2020 18:2520200149 Dominion Energy Overthrust Pipeline Posts Notice  N/A 1 
 Rates - Chgs03/19/2020 18:0503/19/2020 18:0504/01/2020 09:0020200148 Kern River - April 2020 Compressor Fuel and L&U  N/A 1 
 Other03/19/2020 15:4703/19/2020 15:4703/20/2020 15:4720200147 Dominion Energy Questar Pipeline Posts Notice  N/A 1 
 Other03/19/2020 07:5003/19/2020 07:5003/20/2020 07:5020200146 PG&E Posts Notice  N/A 1 
 Other03/18/2020 21:3003/18/2020 21:3003/19/2020 21:3020200145 SoCalGas Posts Notice  N/A 1 
 Other03/18/2020 17:2103/18/2020 17:2103/19/2020 17:2120200143 SoCalGas Posts Notice  N/A 1 
 Other03/18/2020 10:1203/18/2020 10:1203/19/2020 10:1220200142 PG&E Posts Notice  N/A 1 
 Other03/17/2020 13:1903/17/2020 13:1903/18/2020 13:1920200140 Northwest Pipeline Posts Notice  N/A 1 
 Maint03/16/2020 18:1703/16/2020 18:1704/20/2020 18:1720200139 Kern River - Update to Maintenance Schedule  N/A 3 20200138
 Maint03/16/2020 17:3303/16/2020 17:3304/17/2020 17:3320200138 Kern River - Update to Maintenance Schedule  N/A 3 20200088
 Other03/16/2020 11:5603/16/2020 11:5603/17/2020 11:5620200135 Mojave Pipeline Company Posts Notice  N/A 1 
 News03/16/2020 11:4403/16/2020 11:4404/16/2020 11:4420200134 Message on Coronavirus (COVID-19) Update  N/A 2 20200106
 Other03/16/2020 11:0403/16/2020 11:0403/17/2020 11:0420200132 PG&E Posts Notice  N/A 1 
 Other03/15/2020 08:4203/15/2020 08:4203/16/2020 08:4220200131 PG&E Posts Notice  N/A 1 
 Other03/14/2020 18:2603/14/2020 18:2603/15/2020 18:2620200130 PG&E Posts Notice  N/A 2 20200129
 Other03/14/2020 18:2403/14/2020 18:2403/15/2020 18:2420200129 PG&E Posts Notice  N/A 3 
 Other03/13/2020 13:3903/13/2020 13:3903/14/2020 13:3920200128 PG&E Posts Notice  N/A 1 
 Other03/11/2020 18:3103/11/2020 18:3103/12/2020 18:3120200125 Southwest Gas Posts Notice  N/A 1 
 Other03/11/2020 16:0703/11/2020 16:0703/12/2020 16:0720200123 Northwest Pipeline Posts Notice  N/A 1 
 Other03/10/2020 16:5703/10/2020 16:5703/11/2020 16:5720200122 Southwest Gas Posts Notice  N/A 1 
 Maint03/10/2020 15:0703/10/2020 15:0703/11/2020 15:0720200120 Kern River - Goodsprings Compressor Station Maintenance Completed Early  N/A 1 
 Other03/10/2020 14:5903/10/2020 14:5903/11/2020 14:5920200119 Northwest Pipeline Posts Notice  N/A 1 
 Other03/10/2020 10:2403/10/2020 10:2403/11/2020 10:2420200118 Mojave Pipeline Company Posts Notice  N/A 1 
 Other03/09/2020 12:2303/09/2020 12:2303/10/2020 12:2320200115 Dominion Energy Questar Pipeline Posts Notice  N/A 1 
 Other03/09/2020 12:1903/09/2020 12:1903/10/2020 12:1920200114 Northwest Pipeline Posts Notice  N/A 1 
 Other03/08/2020 17:1003/08/2020 17:1003/09/2020 17:1020200112 SoCalGas Posts Notice  N/A 1 
 Other03/08/2020 08:3203/08/2020 08:3203/09/2020 08:3220200111 PG&E Posts Notice  N/A 1 
 Cust Srvc03/06/2020 11:1303/06/2020 11:1303/13/2020 09:0020200109 Kern River - February 2020 Final Allocation Reports  N/A 1 
 Other03/05/2020 15:5203/05/2020 15:5203/06/2020 15:5220200108 Mojave Pipeline Company Posts Notice  N/A 1 
 Other03/04/2020 12:5403/04/2020 12:5403/05/2020 12:5420200107 Mojave Pipeline Company Posts Notice  N/A 1 
 News03/04/2020 11:3803/04/2020 11:3804/04/2020 11:3820200106 Message on Coronavirus (COVID-19)  N/A 3 
 Cust Srvc03/03/2020 12:2203/03/2020 12:2203/08/2020 12:2220200104 Kern River - Daylight Saving Time Begins Sunday, March 8, 2020  N/A 1 
 Other03/02/2020 17:2903/02/2020 17:2903/03/2020 17:2920200103 SoCalGas Posts Notice  N/A 1 
 Other03/01/2020 21:2003/01/2020 21:2003/02/2020 21:2020200102 SoCalGas Posts Notice  N/A 1 
 Other03/01/2020 18:1503/01/2020 18:1503/02/2020 18:1520200101 SoCalGas Posts Notice  N/A 1 
 Cust Srvc03/01/2020 10:1203/01/2020 10:1203/06/2020 09:0020200099 Kern River - February 2020 Preliminary Allocation Reports  N/A 1 
 Other02/29/2020 21:2602/29/2020 21:2603/01/2020 21:2620200097 SoCal Gas Posts Notice  N/A 1 
 Other02/29/2020 18:0302/29/2020 18:0303/01/2020 18:0320200096 SoCal Gas Posts Notice  N/A 1 
 Other02/28/2020 21:3402/28/2020 21:3402/29/2020 21:3420200095 SoCalGas Posts Notice  N/A 1 
 News02/28/2020 13:0002/28/2020 13:0003/06/2020 13:0020200094 Kern River Tariff Filings, Docket No. RP20-586  N/A 1 
 Other02/28/2020 10:1902/28/2020 10:1902/29/2020 10:1920200093 PG&E Posts Notice  N/A 1 
 Other02/26/2020 18:2402/26/2020 18:2402/27/2020 18:2420200092 Northwest Pipeline Posts Notice  N/A 1 
 Other02/26/2020 10:5102/26/2020 10:5102/27/2020 10:5120200091 Northwest Pipeline Posts Notice  N/A 1 
 Other02/25/2020 14:4602/25/2020 14:4602/26/2020 14:4620200089 Northwest Pipeline Posts Notice  N/A 1 
 Maint02/25/2020 14:2102/25/2020 14:2103/24/2020 14:2120200088 Kern River - Update to Maintenance Schedule  N/A 3 20200082
 Cap Rel12/15/2019 20:2812/15/2019 20:2801/01/2021 00:0020190712 Kern River - Capacity Release Indices  N/A 1 
 Loc Chg12/12/2019 10:1912/12/2019 10:1903/31/2020 09:0020190707 Kern River - New Salt Cove Receipt and Delivery Meters (Update)  N/A 3 20190564
 Waste Heat12/15/2019 11:3012/15/2019 11:3012/31/2020 11:3020190705 Kern River - Potential Waste Heat Recovery Facilities  N/A 1 
 Req Purch Rel Cap01/01/2020 09:0001/01/2020 09:0001/01/2021 08:5920190704 Kern River - Instructions for Requests to Purchase Releasable Capacity  N/A 1 


Notice Status Key:
1 = Initiate
2 = Supersede
3 = Terminate